sensor_id;sensor_type;location;lat;lon;timestamp;P1;durP1;ratioP1;P2;durP2;ratioP2
67965;SDS011;54749;47.850;9.002;2023-04-03T00:00:56;14.77;;;6.07;;
67965;SDS011;54749;47.850;9.002;2023-04-03T00:03:23;12.63;;;6.32;;
67965;SDS011;54749;47.850;9.002;2023-04-03T00:05:51;13.20;;;6.47;;
67965;SDS011;54749;47.850;9.002;2023-04-03T00:08:18;13.57;;;5.72;;
67965;SDS011;54749;47.850;9.002;2023-04-03T00:10:46;11.52;;;5.78;;
67965;SDS011;54749;47.850;9.002;2023-04-03T00:13:13;11.43;;;5.53;;
67965;SDS011;54749;47.850;9.002;2023-04-03T00:15:41;12.63;;;5.90;;
67965;SDS011;54749;47.850;9.002;2023-04-03T00:18:09;10.38;;;5.53;;
67965;SDS011;54749;47.850;9.002;2023-04-03T00:20:37;11.32;;;5.93;;
67965;SDS011;54749;47.850;9.002;2023-04-03T00:23:05;11.25;;;5.60;;
67965;SDS011;54749;47.850;9.002;2023-04-03T00:25:32;11.10;;;5.33;;
67965;SDS011;54749;47.850;9.002;2023-04-03T00:28:00;10.80;;;5.68;;
67965;SDS011;54749;47.850;9.002;2023-04-03T00:30:27;13.00;;;5.82;;
67965;SDS011;54749;47.850;9.002;2023-04-03T00:32:54;11.95;;;5.55;;
67965;SDS011;54749;47.850;9.002;2023-04-03T00:35:22;11.82;;;5.80;;
67965;SDS011;54749;47.850;9.002;2023-04-03T00:37:51;10.97;;;5.60;;
67965;SDS011;54749;47.850;9.002;2023-04-03T00:40:21;11.48;;;5.45;;
67965;SDS011;54749;47.850;9.002;2023-04-03T00:42:56;11.43;;;5.68;;
67965;SDS011;54749;47.850;9.002;2023-04-03T00:45:29;11.95;;;5.63;;
67965;SDS011;54749;47.850;9.002;2023-04-03T00:48:04;12.75;;;5.90;;
67965;SDS011;54749;47.850;9.002;2023-04-03T00:50:35;12.13;;;6.27;;
67965;SDS011;54749;47.850;9.002;2023-04-03T00:53:05;11.30;;;5.85;;
67965;SDS011;54749;47.850;9.002;2023-04-03T00:55:34;10.55;;;5.40;;
67965;SDS011;54749;47.850;9.002;2023-04-03T00:58:03;12.40;;;5.80;;
67965;SDS011;54749;47.850;9.002;2023-04-03T01:00:35;15.80;;;6.50;;
67965;SDS011;54749;47.850;9.002;2023-04-03T01:03:05;12.67;;;6.03;;
67965;SDS011;54749;47.850;9.002;2023-04-03T01:05:34;14.10;;;6.50;;
67965;SDS011;54749;47.850;9.002;2023-04-03T01:08:02;12.63;;;6.45;;
67965;SDS011;54749;47.850;9.002;2023-04-03T01:10:30;11.90;;;6.32;;
67965;SDS011;54749;47.850;9.002;2023-04-03T01:12:57;15.30;;;6.28;;
67965;SDS011;54749;47.850;9.002;2023-04-03T01:15:27;11.83;;;6.00;;
67965;SDS011;54749;47.850;9.002;2023-04-03T01:18:01;17.00;;;7.68;;
67965;SDS011;54749;47.850;9.002;2023-04-03T01:28:12;13.87;;;6.43;;
67965;SDS011;54749;47.850;9.002;2023-04-03T01:30:51;11.95;;;5.88;;
67965;SDS011;54749;47.850;9.002;2023-04-03T01:33:26;12.15;;;6.25;;
67965;SDS011;54749;47.850;9.002;2023-04-03T01:35:54;11.48;;;5.95;;
67965;SDS011;54749;47.850;9.002;2023-04-03T01:38:22;10.65;;;5.85;;
67965;SDS011;54749;47.850;9.002;2023-04-03T01:40:49;12.13;;;5.97;;
67965;SDS011;54749;47.850;9.002;2023-04-03T01:43:16;11.75;;;5.85;;
67965;SDS011;54749;47.850;9.002;2023-04-03T01:45:44;12.30;;;6.00;;
67965;SDS011;54749;47.850;9.002;2023-04-03T01:48:11;12.80;;;6.00;;
67965;SDS011;54749;47.850;9.002;2023-04-03T01:50:39;10.48;;;5.60;;
67965;SDS011;54749;47.850;9.002;2023-04-03T01:53:06;12.97;;;5.77;;
67965;SDS011;54749;47.850;9.002;2023-04-03T01:55:33;12.73;;;5.60;;
67965;SDS011;54749;47.850;9.002;2023-04-03T01:58:01;10.75;;;5.68;;
67965;SDS011;54749;47.850;9.002;2023-04-03T02:00:28;11.73;;;5.70;;
67965;SDS011;54749;47.850;9.002;2023-04-03T02:02:55;12.45;;;6.43;;
67965;SDS011;54749;47.850;9.002;2023-04-03T02:05:25;12.73;;;5.97;;
67965;SDS011;54749;47.850;9.002;2023-04-03T02:07:52;12.13;;;6.13;;
67965;SDS011;54749;47.850;9.002;2023-04-03T02:10:19;12.75;;;6.40;;
67965;SDS011;54749;47.850;9.002;2023-04-03T02:12:46;13.77;;;6.65;;
67965;SDS011;54749;47.850;9.002;2023-04-03T02:15:14;13.48;;;6.07;;
67965;SDS011;54749;47.850;9.002;2023-04-03T02:17:41;13.20;;;6.20;;
67965;SDS011;54749;47.850;9.002;2023-04-03T02:20:09;11.35;;;5.72;;
67965;SDS011;54749;47.850;9.002;2023-04-03T02:22:36;13.77;;;6.20;;
67965;SDS011;54749;47.850;9.002;2023-04-03T02:25:04;13.45;;;6.55;;
67965;SDS011;54749;47.850;9.002;2023-04-03T02:27:31;12.65;;;5.68;;
67965;SDS011;54749;47.850;9.002;2023-04-03T02:29:58;11.70;;;5.83;;
67965;SDS011;54749;47.850;9.002;2023-04-03T02:32:25;13.48;;;6.30;;
67965;SDS011;54749;47.850;9.002;2023-04-03T02:34:53;12.75;;;5.93;;
67965;SDS011;54749;47.850;9.002;2023-04-03T02:37:21;12.32;;;6.03;;
67965;SDS011;54749;47.850;9.002;2023-04-03T02:39:50;13.88;;;6.28;;
67965;SDS011;54749;47.850;9.002;2023-04-03T02:42:17;12.30;;;6.03;;
67965;SDS011;54749;47.850;9.002;2023-04-03T02:44:44;13.20;;;6.10;;
67965;SDS011;54749;47.850;9.002;2023-04-03T02:47:11;12.27;;;5.93;;
67965;SDS011;54749;47.850;9.002;2023-04-03T02:49:38;15.23;;;6.47;;
67965;SDS011;54749;47.850;9.002;2023-04-03T02:52:06;14.75;;;6.03;;
67965;SDS011;54749;47.850;9.002;2023-04-03T02:54:33;12.13;;;5.87;;
67965;SDS011;54749;47.850;9.002;2023-04-03T02:57:03;13.38;;;6.30;;
67965;SDS011;54749;47.850;9.002;2023-04-03T02:59:31;11.82;;;5.68;;
67965;SDS011;54749;47.850;9.002;2023-04-03T03:01:58;13.95;;;5.68;;
67965;SDS011;54749;47.850;9.002;2023-04-03T03:04:25;11.43;;;5.47;;
67965;SDS011;54749;47.850;9.002;2023-04-03T03:06:52;14.90;;;5.20;;
67965;SDS011;54749;47.850;9.002;2023-04-03T03:09:20;12.40;;;5.45;;
67965;SDS011;54749;47.850;9.002;2023-04-03T03:11:47;12.90;;;5.82;;
67965;SDS011;54749;47.850;9.002;2023-04-03T03:14:14;11.68;;;5.75;;
67965;SDS011;54749;47.850;9.002;2023-04-03T03:16:41;12.60;;;5.78;;
67965;SDS011;54749;47.850;9.002;2023-04-03T03:19:09;13.40;;;5.97;;
67965;SDS011;54749;47.850;9.002;2023-04-03T03:21:36;12.52;;;6.05;;
67965;SDS011;54749;47.850;9.002;2023-04-03T03:24:04;13.55;;;6.18;;
67965;SDS011;54749;47.850;9.002;2023-04-03T03:26:32;11.00;;;5.20;;
67965;SDS011;54749;47.850;9.002;2023-04-03T03:29:01;11.05;;;5.30;;
67965;SDS011;54749;47.850;9.002;2023-04-03T03:31:29;12.63;;;5.20;;
67965;SDS011;54749;47.850;9.002;2023-04-03T03:33:57;12.35;;;5.30;;
67965;SDS011;54749;47.850;9.002;2023-04-03T03:36:24;13.98;;;6.03;;
67965;SDS011;54749;47.850;9.002;2023-04-03T03:38:51;11.23;;;5.43;;
67965;SDS011;54749;47.850;9.002;2023-04-03T03:41:18;11.43;;;5.43;;
67965;SDS011;54749;47.850;9.002;2023-04-03T03:43:46;13.00;;;5.60;;
67965;SDS011;54749;47.850;9.002;2023-04-03T03:46:14;10.85;;;5.30;;
67965;SDS011;54749;47.850;9.002;2023-04-03T03:48:42;11.38;;;5.15;;
67965;SDS011;54749;47.850;9.002;2023-04-03T03:51:09;11.95;;;5.22;;
67965;SDS011;54749;47.850;9.002;2023-04-03T03:53:38;13.13;;;5.15;;
67965;SDS011;54749;47.850;9.002;2023-04-03T03:56:08;11.63;;;5.47;;
67965;SDS011;54749;47.850;9.002;2023-04-03T03:58:38;11.00;;;5.28;;
67965;SDS011;54749;47.850;9.002;2023-04-03T04:01:06;11.70;;;5.10;;
67965;SDS011;54749;47.850;9.002;2023-04-03T04:03:43;10.20;;;4.70;;
67965;SDS011;54749;47.850;9.002;2023-04-03T04:06:12;10.75;;;4.88;;
67965;SDS011;54749;47.850;9.002;2023-04-03T04:08:40;10.83;;;4.60;;
67965;SDS011;54749;47.850;9.002;2023-04-03T04:11:10;9.02;;;4.65;;
67965;SDS011;54749;47.850;9.002;2023-04-03T04:13:38;12.90;;;5.10;;
67965;SDS011;54749;47.850;9.002;2023-04-03T04:16:07;9.13;;;4.60;;
67965;SDS011;54749;47.850;9.002;2023-04-03T04:18:34;9.32;;;4.13;;
67965;SDS011;54749;47.850;9.002;2023-04-03T04:21:01;8.90;;;3.83;;
67965;SDS011;54749;47.850;9.002;2023-04-03T04:23:29;8.32;;;3.92;;
67965;SDS011;54749;47.850;9.002;2023-04-03T04:25:58;8.43;;;4.20;;
67965;SDS011;54749;47.850;9.002;2023-04-03T04:28:27;7.57;;;3.45;;
67965;SDS011;54749;47.850;9.002;2023-04-03T04:30:57;8.07;;;3.72;;
67965;SDS011;54749;47.850;9.002;2023-04-03T04:33:26;8.77;;;3.90;;
67965;SDS011;54749;47.850;9.002;2023-04-03T04:35:54;7.13;;;3.30;;
67965;SDS011;54749;47.850;9.002;2023-04-03T04:38:22;8.43;;;3.33;;
67965;SDS011;54749;47.850;9.002;2023-04-03T04:40:51;7.20;;;3.40;;
67965;SDS011;54749;47.850;9.002;2023-04-03T04:43:20;8.07;;;3.70;;
67965;SDS011;54749;47.850;9.002;2023-04-03T04:45:59;7.43;;;3.33;;
67965;SDS011;54749;47.850;9.002;2023-04-03T04:48:28;8.65;;;3.63;;
67965;SDS011;54749;47.850;9.002;2023-04-03T04:50:58;10.27;;;3.55;;
67965;SDS011;54749;47.850;9.002;2023-04-03T04:53:26;8.32;;;3.63;;
67965;SDS011;54749;47.850;9.002;2023-04-03T04:55:53;8.48;;;3.75;;
67965;SDS011;54749;47.850;9.002;2023-04-03T04:58:21;7.47;;;3.30;;
67965;SDS011;54749;47.850;9.002;2023-04-03T05:00:49;8.98;;;3.55;;
67965;SDS011;54749;47.850;9.002;2023-04-03T05:03:17;7.50;;;3.33;;
67965;SDS011;54749;47.850;9.002;2023-04-03T05:05:44;8.07;;;3.80;;
67965;SDS011;54749;47.850;9.002;2023-04-03T05:08:12;7.88;;;3.72;;
67965;SDS011;54749;47.850;9.002;2023-04-03T05:10:41;9.87;;;3.63;;
67965;SDS011;54749;47.850;9.002;2023-04-03T05:13:10;7.00;;;3.20;;
67965;SDS011;54749;47.850;9.002;2023-04-03T05:15:38;8.60;;;3.50;;
67965;SDS011;54749;47.850;9.002;2023-04-03T05:18:06;7.20;;;3.40;;
67965;SDS011;54749;47.850;9.002;2023-04-03T05:20:33;7.20;;;3.38;;
67965;SDS011;54749;47.850;9.002;2023-04-03T05:23:01;7.70;;;3.30;;
67965;SDS011;54749;47.850;9.002;2023-04-03T05:25:29;8.00;;;3.90;;
67965;SDS011;54749;47.850;9.002;2023-04-03T05:27:57;8.70;;;3.70;;
67965;SDS011;54749;47.850;9.002;2023-04-03T05:30:24;7.88;;;3.60;;
67965;SDS011;54749;47.850;9.002;2023-04-03T05:32:52;9.20;;;3.60;;
67965;SDS011;54749;47.850;9.002;2023-04-03T05:35:32;7.90;;;3.17;;
67965;SDS011;54749;47.850;9.002;2023-04-03T05:38:02;7.47;;;3.47;;
67965;SDS011;54749;47.850;9.002;2023-04-03T05:40:30;7.90;;;3.88;;
67965;SDS011;54749;47.850;9.002;2023-04-03T05:42:58;8.40;;;3.60;;
67965;SDS011;54749;47.850;9.002;2023-04-03T05:45:28;11.80;;;4.13;;
67965;SDS011;54749;47.850;9.002;2023-04-03T05:47:57;8.73;;;4.23;;
67965;SDS011;54749;47.850;9.002;2023-04-03T05:50:24;8.52;;;4.00;;
67965;SDS011;54749;47.850;9.002;2023-04-03T05:52:53;8.90;;;3.80;;
67965;SDS011;54749;47.850;9.002;2023-04-03T05:55:27;9.93;;;3.80;;
67965;SDS011;54749;47.850;9.002;2023-04-03T05:57:54;9.20;;;4.30;;
67965;SDS011;54749;47.850;9.002;2023-04-03T06:00:21;8.80;;;3.83;;
67965;SDS011;54749;47.850;9.002;2023-04-03T06:02:58;9.13;;;4.30;;
67965;SDS011;54749;47.850;9.002;2023-04-03T06:05:26;12.68;;;4.00;;
67965;SDS011;54749;47.850;9.002;2023-04-03T06:07:54;10.98;;;4.22;;
67965;SDS011;54749;47.850;9.002;2023-04-03T06:10:22;9.40;;;3.67;;
67965;SDS011;54749;47.850;9.002;2023-04-03T06:12:50;7.63;;;3.50;;
67965;SDS011;54749;47.850;9.002;2023-04-03T06:15:17;8.05;;;3.50;;
67965;SDS011;54749;47.850;9.002;2023-04-03T06:17:45;6.53;;;3.03;;
67965;SDS011;54749;47.850;9.002;2023-04-03T06:20:12;8.57;;;3.55;;
67965;SDS011;54749;47.850;9.002;2023-04-03T06:22:40;8.05;;;3.50;;
67965;SDS011;54749;47.850;9.002;2023-04-03T06:25:10;9.10;;;4.10;;
67965;SDS011;54749;47.850;9.002;2023-04-03T06:27:38;6.53;;;3.20;;
67965;SDS011;54749;47.850;9.002;2023-04-03T06:30:06;7.88;;;3.63;;
67965;SDS011;54749;47.850;9.002;2023-04-03T06:32:34;7.63;;;3.50;;
67965;SDS011;54749;47.850;9.002;2023-04-03T06:35:01;7.85;;;3.33;;
67965;SDS011;54749;47.850;9.002;2023-04-03T06:37:29;6.60;;;3.30;;
67965;SDS011;54749;47.850;9.002;2023-04-03T06:39:57;6.70;;;3.30;;
67965;SDS011;54749;47.850;9.002;2023-04-03T06:42:24;6.43;;;3.25;;
67965;SDS011;54749;47.850;9.002;2023-04-03T06:45:02;9.98;;;4.40;;
67965;SDS011;54749;47.850;9.002;2023-04-03T06:47:30;10.07;;;4.30;;
67965;SDS011;54749;47.850;9.002;2023-04-03T06:49:57;8.80;;;3.73;;
67965;SDS011;54749;47.850;9.002;2023-04-03T06:52:25;9.98;;;4.45;;
67965;SDS011;54749;47.850;9.002;2023-04-03T06:54:53;9.02;;;3.95;;
67965;SDS011;54749;47.850;9.002;2023-04-03T06:57:24;7.22;;;3.47;;
67965;SDS011;54749;47.850;9.002;2023-04-03T06:59:51;9.32;;;3.70;;
67965;SDS011;54749;47.850;9.002;2023-04-03T07:02:19;8.47;;;3.67;;
67965;SDS011;54749;47.850;9.002;2023-04-03T07:04:47;7.30;;;3.45;;
67965;SDS011;54749;47.850;9.002;2023-04-03T07:07:15;9.05;;;3.60;;
67965;SDS011;54749;47.850;9.002;2023-04-03T07:09:43;10.32;;;3.53;;
67965;SDS011;54749;47.850;9.002;2023-04-03T07:12:11;8.13;;;3.42;;
67965;SDS011;54749;47.850;9.002;2023-04-03T07:14:39;6.83;;;3.23;;
67965;SDS011;54749;47.850;9.002;2023-04-03T07:17:06;7.40;;;3.45;;
67965;SDS011;54749;47.850;9.002;2023-04-03T07:19:33;6.90;;;3.35;;
67965;SDS011;54749;47.850;9.002;2023-04-03T07:22:01;10.93;;;2.90;;
67965;SDS011;54749;47.850;9.002;2023-04-03T07:24:28;7.85;;;3.00;;
67965;SDS011;54749;47.850;9.002;2023-04-03T07:26:56;6.73;;;3.00;;
67965;SDS011;54749;47.850;9.002;2023-04-03T07:29:23;7.78;;;2.97;;
67965;SDS011;54749;47.850;9.002;2023-04-03T07:31:51;8.07;;;3.22;;
67965;SDS011;54749;47.850;9.002;2023-04-03T07:34:18;6.65;;;2.83;;
67965;SDS011;54749;47.850;9.002;2023-04-03T07:36:46;7.68;;;3.30;;
67965;SDS011;54749;47.850;9.002;2023-04-03T07:39:13;7.90;;;3.00;;
67965;SDS011;54749;47.850;9.002;2023-04-03T07:41:41;6.97;;;3.00;;
67965;SDS011;54749;47.850;9.002;2023-04-03T07:44:08;6.38;;;3.00;;
67965;SDS011;54749;47.850;9.002;2023-04-03T07:46:39;6.22;;;3.00;;
67965;SDS011;54749;47.850;9.002;2023-04-03T07:49:07;7.50;;;2.92;;
67965;SDS011;54749;47.850;9.002;2023-04-03T07:51:35;7.27;;;2.83;;
67965;SDS011;54749;47.850;9.002;2023-04-03T07:54:03;6.68;;;2.83;;
67965;SDS011;54749;47.850;9.002;2023-04-03T07:56:31;9.93;;;3.30;;
67965;SDS011;54749;47.850;9.002;2023-04-03T07:58:58;6.40;;;2.90;;
67965;SDS011;54749;47.850;9.002;2023-04-03T08:01:26;6.32;;;2.70;;
67965;SDS011;54749;47.850;9.002;2023-04-03T08:03:53;6.87;;;3.07;;
67965;SDS011;54749;47.850;9.002;2023-04-03T08:06:20;7.15;;;3.10;;
67965;SDS011;54749;47.850;9.002;2023-04-03T08:09:07;8.38;;;3.08;;
67965;SDS011;54749;47.850;9.002;2023-04-03T08:11:35;7.13;;;3.20;;
67965;SDS011;54749;47.850;9.002;2023-04-03T08:14:03;7.07;;;3.30;;
67965;SDS011;54749;47.850;9.002;2023-04-03T08:16:30;6.90;;;3.03;;
67965;SDS011;54749;47.850;9.002;2023-04-03T08:18:57;8.00;;;3.20;;
67965;SDS011;54749;47.850;9.002;2023-04-03T08:21:25;7.82;;;3.53;;
67965;SDS011;54749;47.850;9.002;2023-04-03T08:23:52;7.20;;;3.30;;
67965;SDS011;54749;47.850;9.002;2023-04-03T08:26:20;9.02;;;3.55;;
67965;SDS011;54749;47.850;9.002;2023-04-03T08:28:48;8.30;;;3.20;;
67965;SDS011;54749;47.850;9.002;2023-04-03T08:31:17;6.22;;;3.15;;
67965;SDS011;54749;47.850;9.002;2023-04-03T08:33:45;7.22;;;3.38;;
67965;SDS011;54749;47.850;9.002;2023-04-03T08:36:16;7.20;;;3.55;;
67965;SDS011;54749;47.850;9.002;2023-04-03T08:38:54;10.38;;;3.80;;
67965;SDS011;54749;47.850;9.002;2023-04-03T08:41:35;7.23;;;3.37;;
67965;SDS011;54749;47.850;9.002;2023-04-03T08:44:15;11.45;;;3.40;;
67965;SDS011;54749;47.850;9.002;2023-04-03T08:49:35;8.63;;;3.72;;
67965;SDS011;54749;47.850;9.002;2023-04-03T08:52:11;6.45;;;3.20;;
67965;SDS011;54749;47.850;9.002;2023-04-03T08:54:51;7.50;;;3.47;;
67965;SDS011;54749;47.850;9.002;2023-04-03T08:57:29;7.40;;;3.50;;
67965;SDS011;54749;47.850;9.002;2023-04-03T09:00:00;12.07;;;3.78;;
67965;SDS011;54749;47.850;9.002;2023-04-03T09:02:33;8.63;;;3.78;;
67965;SDS011;54749;47.850;9.002;2023-04-03T09:05:16;9.57;;;3.70;;
67965;SDS011;54749;47.850;9.002;2023-04-03T09:07:56;9.32;;;4.00;;
67965;SDS011;54749;47.850;9.002;2023-04-03T09:10:28;9.13;;;3.63;;
67965;SDS011;54749;47.850;9.002;2023-04-03T09:13:03;8.02;;;3.35;;
67965;SDS011;54749;47.850;9.002;2023-04-03T09:15:30;8.57;;;3.20;;
67965;SDS011;54749;47.850;9.002;2023-04-03T09:18:11;7.18;;;3.30;;
67965;SDS011;54749;47.850;9.002;2023-04-03T09:20:49;7.57;;;3.60;;
67965;SDS011;54749;47.850;9.002;2023-04-03T09:26:28;9.73;;;3.28;;
67965;SDS011;54749;47.850;9.002;2023-04-03T09:29:02;7.30;;;3.63;;
67965;SDS011;54749;47.850;9.002;2023-04-03T09:31:36;6.32;;;2.90;;
67965;SDS011;54749;47.850;9.002;2023-04-03T09:37:03;7.27;;;3.53;;
67965;SDS011;54749;47.850;9.002;2023-04-03T09:39:48;7.57;;;3.50;;
67965;SDS011;54749;47.850;9.002;2023-04-03T09:42:24;9.43;;;3.10;;
67965;SDS011;54749;47.850;9.002;2023-04-03T09:44:56;6.90;;;3.35;;
67965;SDS011;54749;47.850;9.002;2023-04-03T09:47:34;8.55;;;3.45;;
67965;SDS011;54749;47.850;9.002;2023-04-03T09:52:40;6.78;;;3.40;;
67965;SDS011;54749;47.850;9.002;2023-04-03T09:55:19;7.45;;;3.40;;
67965;SDS011;54749;47.850;9.002;2023-04-03T09:57:54;7.85;;;3.47;;
67965;SDS011;54749;47.850;9.002;2023-04-03T10:00:36;7.20;;;3.40;;
67965;SDS011;54749;47.850;9.002;2023-04-03T10:03:05;9.27;;;3.27;;
67965;SDS011;54749;47.850;9.002;2023-04-03T10:05:48;8.23;;;3.22;;
67965;SDS011;54749;47.850;9.002;2023-04-03T10:10:45;7.13;;;3.50;;
67965;SDS011;54749;47.850;9.002;2023-04-03T10:13:15;7.15;;;3.28;;
67965;SDS011;54749;47.850;9.002;2023-04-03T10:15:51;6.73;;;3.30;;
67965;SDS011;54749;47.850;9.002;2023-04-03T10:18:40;7.65;;;3.30;;
67965;SDS011;54749;47.850;9.002;2023-04-03T10:21:18;6.80;;;3.28;;
67965;SDS011;54749;47.850;9.002;2023-04-03T10:24:18;8.52;;;3.40;;
67965;SDS011;54749;47.850;9.002;2023-04-03T10:46:07;7.20;;;3.65;;
67965;SDS011;54749;47.850;9.002;2023-04-03T10:53:56;8.50;;;4.00;;
67965;SDS011;54749;47.850;9.002;2023-04-03T10:59:28;8.43;;;3.88;;
67965;SDS011;54749;47.850;9.002;2023-04-03T11:01:59;8.00;;;3.60;;
67965;SDS011;54749;47.850;9.002;2023-04-03T11:04:29;8.57;;;3.70;;
67965;SDS011;54749;47.850;9.002;2023-04-03T11:09:35;8.70;;;3.47;;
67965;SDS011;54749;47.850;9.002;2023-04-03T11:15:00;8.20;;;3.80;;
67965;SDS011;54749;47.850;9.002;2023-04-03T11:17:39;7.43;;;3.20;;
67965;SDS011;54749;47.850;9.002;2023-04-03T11:20:21;8.27;;;3.45;;
67965;SDS011;54749;47.850;9.002;2023-04-03T11:22:57;8.93;;;3.00;;
67965;SDS011;54749;47.850;9.002;2023-04-03T11:25:31;7.18;;;3.20;;
67965;SDS011;54749;47.850;9.002;2023-04-03T11:28:02;8.40;;;3.67;;
67965;SDS011;54749;47.850;9.002;2023-04-03T11:30:49;13.52;;;3.75;;
67965;SDS011;54749;47.850;9.002;2023-04-03T11:35:50;9.70;;;3.33;;
67965;SDS011;54749;47.850;9.002;2023-04-03T11:38:24;11.63;;;3.53;;
67965;SDS011;54749;47.850;9.002;2023-04-03T11:40:56;6.68;;;3.00;;
67965;SDS011;54749;47.850;9.002;2023-04-03T11:43:26;6.65;;;3.10;;
67965;SDS011;54749;47.850;9.002;2023-04-03T11:46:03;6.70;;;3.45;;
67965;SDS011;54749;47.850;9.002;2023-04-03T11:51:36;9.73;;;3.70;;
67965;SDS011;54749;47.850;9.002;2023-04-03T11:53:55;7.60;;;3.47;;
67965;SDS011;54749;47.850;9.002;2023-04-03T11:57:22;6.75;;;3.20;;
67965;SDS011;54749;47.850;9.002;2023-04-03T12:05:49;5.95;;;2.83;;
67965;SDS011;54749;47.850;9.002;2023-04-03T12:21:17;6.40;;;2.65;;
67965;SDS011;54749;47.850;9.002;2023-04-03T12:26:48;6.00;;;2.50;;
67965;SDS011;54749;47.850;9.002;2023-04-03T12:35:01;5.77;;;2.50;;
67965;SDS011;54749;47.850;9.002;2023-04-03T12:37:40;6.35;;;2.70;;
67965;SDS011;54749;47.850;9.002;2023-04-03T12:51:16;11.00;;;3.65;;
67965;SDS011;54749;47.850;9.002;2023-04-03T12:53:46;16.52;;;4.28;;
67965;SDS011;54749;47.850;9.002;2023-04-03T12:56:26;8.15;;;4.05;;
67965;SDS011;54749;47.850;9.002;2023-04-03T13:01:43;11.37;;;3.80;;
67965;SDS011;54749;47.850;9.002;2023-04-03T13:04:11;7.03;;;3.47;;
67965;SDS011;54749;47.850;9.002;2023-04-03T13:06:40;10.77;;;3.88;;
67965;SDS011;54749;47.850;9.002;2023-04-03T13:09:22;8.70;;;3.50;;
67965;SDS011;54749;47.850;9.002;2023-04-03T13:12:09;8.80;;;3.38;;
67965;SDS011;54749;47.850;9.002;2023-04-03T13:14:39;7.80;;;3.60;;
67965;SDS011;54749;47.850;9.002;2023-04-03T13:17:12;7.53;;;3.60;;
67965;SDS011;54749;47.850;9.002;2023-04-03T13:19:42;7.40;;;3.38;;
67965;SDS011;54749;47.850;9.002;2023-04-03T13:24:59;8.77;;;3.30;;
67965;SDS011;54749;47.850;9.002;2023-04-03T13:27:32;7.38;;;3.22;;
67965;SDS011;54749;47.850;9.002;2023-04-03T13:29:59;7.60;;;3.27;;
67965;SDS011;54749;47.850;9.002;2023-04-03T13:32:29;7.32;;;3.20;;
67965;SDS011;54749;47.850;9.002;2023-04-03T13:34:58;7.10;;;3.53;;
67965;SDS011;54749;47.850;9.002;2023-04-03T13:37:53;7.60;;;3.40;;
67965;SDS011;54749;47.850;9.002;2023-04-03T13:40:21;7.55;;;3.20;;
67965;SDS011;54749;47.850;9.002;2023-04-03T13:43:15;7.43;;;3.40;;
67965;SDS011;54749;47.850;9.002;2023-04-03T13:54:00;7.07;;;3.15;;
67965;SDS011;54749;47.850;9.002;2023-04-03T13:56:37;6.83;;;3.33;;
67965;SDS011;54749;47.850;9.002;2023-04-03T14:04:20;7.13;;;3.25;;
67965;SDS011;54749;47.850;9.002;2023-04-03T14:06:52;12.85;;;3.42;;
67965;SDS011;54749;47.850;9.002;2023-04-03T14:09:20;6.27;;;3.00;;
67965;SDS011;54749;47.850;9.002;2023-04-03T14:11:48;6.60;;;3.17;;
67965;SDS011;54749;47.850;9.002;2023-04-03T14:14:18;7.88;;;3.60;;
67965;SDS011;54749;47.850;9.002;2023-04-03T14:16:50;7.25;;;3.33;;
67965;SDS011;54749;47.850;9.002;2023-04-03T14:19:22;7.78;;;3.35;;
67965;SDS011;54749;47.850;9.002;2023-04-03T14:21:52;9.35;;;3.60;;
67965;SDS011;54749;47.850;9.002;2023-04-03T14:24:21;8.47;;;3.97;;
67965;SDS011;54749;47.850;9.002;2023-04-03T14:26:50;7.60;;;3.40;;
67965;SDS011;54749;47.850;9.002;2023-04-03T14:29:19;9.80;;;3.50;;
67965;SDS011;54749;47.850;9.002;2023-04-03T14:31:48;7.50;;;3.40;;
67965;SDS011;54749;47.850;9.002;2023-04-03T14:34:29;9.50;;;3.58;;
67965;SDS011;54749;47.850;9.002;2023-04-03T14:36:57;9.60;;;2.70;;
67965;SDS011;54749;47.850;9.002;2023-04-03T14:39:24;6.50;;;3.13;;
67965;SDS011;54749;47.850;9.002;2023-04-03T14:41:51;7.13;;;3.00;;
67965;SDS011;54749;47.850;9.002;2023-04-03T14:44:18;7.22;;;3.25;;
67965;SDS011;54749;47.850;9.002;2023-04-03T14:46:45;7.53;;;3.30;;
67965;SDS011;54749;47.850;9.002;2023-04-03T14:49:26;7.53;;;3.15;;
67965;SDS011;54749;47.850;9.002;2023-04-03T14:51:56;7.40;;;3.25;;
67965;SDS011;54749;47.850;9.002;2023-04-03T14:54:24;7.22;;;3.00;;
67965;SDS011;54749;47.850;9.002;2023-04-03T14:56:56;13.82;;;3.50;;
67965;SDS011;54749;47.850;9.002;2023-04-03T14:59:26;6.40;;;3.40;;
67965;SDS011;54749;47.850;9.002;2023-04-03T15:01:53;6.43;;;3.28;;
67965;SDS011;54749;47.850;9.002;2023-04-03T15:04:21;9.48;;;3.72;;
67965;SDS011;54749;47.850;9.002;2023-04-03T15:06:48;7.53;;;3.42;;
67965;SDS011;54749;47.850;9.002;2023-04-03T15:09:23;7.57;;;3.67;;
67965;SDS011;54749;47.850;9.002;2023-04-03T15:11:53;7.73;;;3.20;;
67965;SDS011;54749;47.850;9.002;2023-04-03T15:14:21;7.07;;;3.30;;
67965;SDS011;54749;47.850;9.002;2023-04-03T15:17:03;7.10;;;3.38;;
67965;SDS011;54749;47.850;9.002;2023-04-03T15:19:40;8.10;;;3.17;;
67965;SDS011;54749;47.850;9.002;2023-04-03T15:22:15;7.57;;;3.45;;
67965;SDS011;54749;47.850;9.002;2023-04-03T15:24:43;7.60;;;3.33;;
67965;SDS011;54749;47.850;9.002;2023-04-03T15:27:11;6.30;;;3.42;;
67965;SDS011;54749;47.850;9.002;2023-04-03T15:29:39;12.05;;;3.65;;
67965;SDS011;54749;47.850;9.002;2023-04-03T15:32:07;10.63;;;3.40;;
67965;SDS011;54749;47.850;9.002;2023-04-03T15:34:36;8.43;;;3.60;;
67965;SDS011;54749;47.850;9.002;2023-04-03T15:37:03;7.60;;;3.60;;
67965;SDS011;54749;47.850;9.002;2023-04-03T15:39:31;6.28;;;3.22;;
67965;SDS011;54749;47.850;9.002;2023-04-03T15:41:58;7.70;;;3.30;;
67965;SDS011;54749;47.850;9.002;2023-04-03T15:44:33;11.80;;;3.40;;
67965;SDS011;54749;47.850;9.002;2023-04-03T15:47:01;9.82;;;3.67;;
67965;SDS011;54749;47.850;9.002;2023-04-03T15:49:30;6.63;;;3.63;;
67965;SDS011;54749;47.850;9.002;2023-04-03T15:51:59;7.38;;;3.40;;
67965;SDS011;54749;47.850;9.002;2023-04-03T15:54:27;8.55;;;3.45;;
67965;SDS011;54749;47.850;9.002;2023-04-03T15:56:56;6.55;;;3.20;;
67965;SDS011;54749;47.850;9.002;2023-04-03T15:59:24;8.32;;;3.47;;
67965;SDS011;54749;47.850;9.002;2023-04-03T16:01:51;8.10;;;3.33;;
67965;SDS011;54749;47.850;9.002;2023-04-03T16:04:19;6.95;;;3.20;;
67965;SDS011;54749;47.850;9.002;2023-04-03T16:06:48;7.85;;;3.50;;
67965;SDS011;54749;47.850;9.002;2023-04-03T16:09:15;6.88;;;3.25;;
67965;SDS011;54749;47.850;9.002;2023-04-03T16:11:42;8.27;;;3.70;;
67965;SDS011;54749;47.850;9.002;2023-04-03T16:14:10;6.90;;;3.30;;
67965;SDS011;54749;47.850;9.002;2023-04-03T16:16:37;8.55;;;3.40;;
67965;SDS011;54749;47.850;9.002;2023-04-03T16:19:05;6.57;;;3.47;;
67965;SDS011;54749;47.850;9.002;2023-04-03T16:21:32;6.50;;;3.15;;
67965;SDS011;54749;47.850;9.002;2023-04-03T16:24:00;7.88;;;3.47;;
67965;SDS011;54749;47.850;9.002;2023-04-03T16:26:28;8.27;;;3.30;;
67965;SDS011;54749;47.850;9.002;2023-04-03T16:28:55;7.85;;;3.60;;
67965;SDS011;54749;47.850;9.002;2023-04-03T16:31:23;7.40;;;3.45;;
67965;SDS011;54749;47.850;9.002;2023-04-03T16:33:52;8.18;;;3.83;;
67965;SDS011;54749;47.850;9.002;2023-04-03T16:36:19;7.53;;;3.42;;
67965;SDS011;54749;47.850;9.002;2023-04-03T16:38:46;8.50;;;3.57;;
67965;SDS011;54749;47.850;9.002;2023-04-03T16:41:13;7.28;;;3.20;;
67965;SDS011;54749;47.850;9.002;2023-04-03T16:43:41;8.57;;;3.58;;
67965;SDS011;54749;47.850;9.002;2023-04-03T16:46:08;8.30;;;3.42;;
67965;SDS011;54749;47.850;9.002;2023-04-03T16:48:35;8.05;;;3.53;;
67965;SDS011;54749;47.850;9.002;2023-04-03T16:51:02;7.17;;;3.20;;
67965;SDS011;54749;47.850;9.002;2023-04-03T16:53:29;6.78;;;3.33;;
67965;SDS011;54749;47.850;9.002;2023-04-03T16:55:57;9.07;;;3.67;;
67965;SDS011;54749;47.850;9.002;2023-04-03T16:58:25;7.75;;;3.13;;